Preview of NWS' New Version of Forecast
This preview is not operational and should not be used for support decisions.
Latest weather observations around

WHITTIER HILLS (WTHC1)

Using English Units (Switch to International System of Units)
Date/ Time (PST) Wind (mph) Vis. (mi) Weather Sky Cond. Temp (°F) Rel. Humidity Wind Chill (°F) Heat Index (°F) Pressure Precip. (in)
Air Dwpt 6 hour Altimeter (inHg) Sea level (inHg) 1 hr 3 hr 6 hr
Max Min
Feb 21 13:57 SW 11   Clear   53 31     43%              
Feb 21 12:57 WSW 8   Clear   53 32     45%              
Feb 21 11:57 WSW 7   Clear   53 35     51%              
Feb 21 10:57 SW 6   Clear   50 38     64%              
Feb 21 09:57 SSW 6   Clear   48 45     89% 45            
Feb 21 08:57 SW 4   Clear   46 45     98% 44            
Feb 21 07:57 W 2   Clear   44 44     100%              
Feb 21 06:57 NNW 4   Clear   42 42     100% 40            
Feb 21 05:57 WNW 3   Clear   42 42     100% 41            
Feb 21 04:57 NW 1   Clear   42 42     100%              
Feb 21 03:57 WSW 1   Clear   43 43     100%              
Feb 21 02:57 N 1   Clear   44 44     100%              
Feb 21 01:57 W 2   Clear   44 44     100%              
Feb 21 00:57 NE 2   Clear   44 44     100%              
Feb 20 23:57 ESE 2   Clear   44 44     100%              
Feb 20 22:57 SW 1   Clear   45 45     100%              
Feb 20 21:57 SW 3   Clear   45 45     100% 44            
Feb 20 20:57 E 5   Clear   44 44     100% 41            
Feb 20 19:57 SE 5   Clear   44 44     100% 41            
Feb 20 18:57 ESE 5   Clear   43 43     100% 40            
Feb 20 17:57 SW 6   Clear   48 40     75% 45            
Feb 20 16:57 W 5   Clear   49 39     67% 47            
Feb 20 15:57 WSW 6   Clear   51 38     61%              
Feb 20 14:57 SW 7   Clear   49 38     66% 46            
Feb 20 13:57 SSW 4   Clear   50 38     64%              
Feb 20 12:57 SE 4   Clear   54 41     62%              
Feb 20 11:57 SE 4   Clear   51 40     65%              
Feb 20 10:57 SE 7   Clear   51 38     62%              
Feb 20 09:57 ESE 5   Clear   52 39     60%              
Feb 20 08:57 E 6   Clear   48 36     64% 45            
Feb 20 07:57 ENE 8   Clear   45 34     64% 41            
Feb 20 06:57 ENE 8   Clear   44 33     65% 39            
Feb 20 05:57 NE 4   Clear   43 32     66% 41            
Feb 20 04:57 ENE 3   Clear   43 32     66% 42            
Feb 20 03:57 E 4   Clear   43 31     63% 41            
Feb 20 02:57 ESE 3   Clear   44 32     63% 43            
Feb 20 01:57 ESE 5   Clear   43 32     65% 40            
Feb 20 00:57 E 5   Clear   44 33     66% 41            
Feb 19 23:57 SE 5   Clear   44 33     65% 41            
Feb 19 22:57 SSW 1   Clear   45 33     62%              
Feb 19 21:57 NW 2   Clear   46 32     59%              
Feb 19 20:57 W 4   Clear   46 33     61% 44            
Feb 19 19:57 WNW 5   Clear   46 32     59% 44            
Feb 19 18:57 WSW 8   Clear   47 30     52% 43            
Feb 19 17:57 SSW 8   Clear   49 28     44% 46            
Feb 19 16:57 SSW 8   Clear   52 28     40%              
Feb 19 15:57 SSW 9   Clear   54 28     37%              
Notice The following observation data may not be complete
Feb 19 14:57     Clear            %              
Feb 19 13:57 WNW 8   Clear   56 21     25%              
Feb 19 12:57 SW 4   Clear   56 21     25%              
Feb 19 11:57 S 6   Clear   55 24     30%              
Feb 19 10:57 SW 3   Clear   55 26     33%              
Feb 19 09:57 SE 4   Clear   54 25     32%              
Feb 19 08:57 NE 8   Clear   48        % 44            
Feb 19 07:57 NE 9   Clear   46        % 41            
Feb 19 06:57 ENE 9   Clear   44 19     37% 39            
Feb 19 05:57 NE 5   Clear   40 22     49% 36            
Feb 19 04:57 NNE 9   Clear   43 20     39% 38            
Feb 19 03:57 N 4   Clear   41 20     42% 38            
Feb 19 02:57 NNE 6   Clear   43 20     40% 39            
Feb 19 01:57 NE 1   Clear   45        %              
Feb 19 00:57 N 3   Clear   44        % 43            
Feb 18 23:57 WNW 3   Clear   46        % 45            
Feb 18 22:57 N 8   Clear   46        % 42            
Feb 18 21:57 NNW 13   Clear   46 25     43% 40            
Feb 18 20:57 NNW 3   Clear   45 28     52% 44            
Feb 18 19:57 NNW 10   Clear   46 27     47% 41            
Feb 18 18:57 N 8   Clear   45 26     47% 41            
Feb 18 17:57 NNE 11   Clear   44 31     61% 38            
Feb 18 16:57 SE 5   Clear   47 34     61% 45            
Feb 18 15:57 NE 9   Clear   45 33     63% 40            
Feb 18 14:57 NNE 9   Clear   50 27     40%              
Notice The following observation data may not be complete
May 14 23:57     Clear            %              
May 14 12:57 SW 10   Clear   67 51     57%              
May 14 00:57 WSW 2   Clear   54 54     100%              
May 13 23:57 W 3   Clear   54 54     100%              
Notice The following observation data may not be complete
May 13 17:57     Clear            %              
Notice The following observation data may not be complete
May 13 16:57     Clear            %              
May 13 09:57 S 7   Clear   55 51     85%              
May 13 06:57 SW 5   Clear   56 53     90%              
May 12 09:57 SSE 3   Clear   55 53     94%              
May 12 06:57 SE 8   Clear   52 52     100%              
May 12 01:57 SE 5   Clear   54 54     100%              
Notice The following observation data may not be complete
May 11 19:57     Clear            %              
May 11 17:57 SSE 10   Clear   58 53     84%              
May 11 16:57 SSE 10   Clear   58 53     84%              
Jun 11 12:57 S 8   Clear   69 55     60%              
Jun 11 06:57 SE 1   Clear   59 52     79%              
Jun 10 19:57 SSE 5   Clear   61 53     75%              
Jun 10 13:57 S 7   Clear   75 57     53%   75          
Jun 10 10:57 SSE 8   Clear   72 58     62%   72          
Jun 09 16:57 SW 11   Clear   77 55     47%   77          
Jun 09 14:57 SSW 10   Clear   77 55     47%   77          
Jun 09 11:57 SW 8   Clear   74 57     56%   74          
Jun 09 10:57 SSW 5   Clear   74 57     56%   74          
Jun 09 07:57 ESE 3   Clear   65 56     73%              
Jun 08 13:57 WSW 6   Clear   71 56     59%   71          
Jun 06 03:57 SE 1   Clear   60 59     98%              
Jun 05 20:57 SSE 5   Clear   59 58     96%